createdAt,value
2023-04-18T00:02:29.828Z,98072.08
2023-04-18T00:05:04.191Z,98071.15
2023-04-18T00:07:35.469Z,98065.66
2023-04-18T00:10:07.762Z,98065.80
2023-04-18T00:12:39.394Z,98066.82
2023-04-18T00:15:12.882Z,98069.65
2023-04-18T00:17:44.066Z,98071.77
2023-04-18T00:20:15.600Z,98069.55
2023-04-18T00:22:46.811Z,98071.03
2023-04-18T00:25:17.976Z,98071.02
2023-04-18T00:27:49.687Z,98075.91
2023-04-18T00:30:21.313Z,98077.92
2023-04-18T00:32:52.485Z,98072.55
2023-04-18T00:35:23.626Z,98073.81
2023-04-18T00:37:54.687Z,98070.34
2023-04-18T00:40:24.029Z,98071.23
2023-04-18T00:42:55.648Z,98070.53
2023-04-18T00:45:26.722Z,98069.22
2023-04-18T00:47:58.120Z,98066.83
2023-04-18T00:50:29.526Z,98068.20
2023-04-18T00:53:01.125Z,98069.28
2023-04-18T00:55:32.638Z,98068.35
2023-04-18T00:58:03.818Z,98070.63
2023-04-18T01:00:35.612Z,98072.23
2023-04-18T01:03:08.686Z,98065.21
2023-04-18T01:05:40.755Z,98069.57
2023-04-18T01:08:13.753Z,98067.58
2023-04-18T01:10:44.756Z,98066.82
2023-04-18T01:13:17.591Z,98065.16
2023-04-18T01:15:50.643Z,98061.46
2023-04-18T01:18:23.033Z,98059.77
2023-04-18T01:20:57.099Z,98063.98
2023-04-18T01:23:28.257Z,98067.30
2023-04-18T01:25:59.342Z,98064.91
2023-04-18T01:28:28.870Z,98064.85
2023-04-18T01:30:59.826Z,98073.16
2023-04-18T01:33:31.139Z,98072.57
2023-04-18T01:36:02.214Z,98074.26
2023-04-18T01:38:34.378Z,98072.34
2023-04-18T01:41:05.487Z,98071.18
2023-04-18T01:43:37.158Z,98068.60
2023-04-18T01:46:08.303Z,98067.44
2023-04-18T01:48:39.632Z,98067.63
2023-04-18T01:51:10.922Z,98067.92
2023-04-18T01:53:41.939Z,98067.58
2023-04-18T01:56:13.022Z,98063.20
2023-04-18T01:58:43.923Z,98061.95
2023-04-18T02:01:13.527Z,98064.45
2023-04-18T02:03:43.336Z,98059.58
2023-04-18T02:06:14.675Z,98062.15
2023-04-18T02:08:44.013Z,98060.26
2023-04-18T02:11:14.915Z,98059.79
2023-04-18T02:13:46.626Z,98057.16
2023-04-18T02:16:17.637Z,98051.69
2023-04-18T02:18:52.503Z,98051.57
2023-04-18T02:21:24.574Z,98050.86
2023-04-18T02:23:55.712Z,98051.40
2023-04-18T02:26:25.323Z,98055.57
2023-04-18T02:28:56.666Z,98055.20
2023-04-18T02:31:27.820Z,98056.54
2023-04-18T02:33:58.869Z,98059.06
2023-04-18T02:36:28.716Z,98058.41
2023-04-18T02:38:58.251Z,98056.89
2023-04-18T02:41:27.800Z,98055.02
2023-04-18T02:44:00.172Z,98062.70
2023-04-18T02:46:31.133Z,98056.63
2023-04-18T02:49:02.248Z,98058.96
2023-04-18T02:51:32.218Z,98057.95
2023-04-18T02:54:03.184Z,98056.95
2023-04-18T02:56:32.670Z,98057.20
2023-04-18T02:59:03.572Z,98057.52
2023-04-18T03:01:33.275Z,98059.42
2023-04-18T03:04:04.284Z,98061.84
2023-04-18T03:06:33.676Z,98064.45
2023-04-18T03:09:04.886Z,98064.52
2023-04-18T03:11:35.835Z,98067.88
2023-04-18T03:14:06.787Z,98069.83
2023-04-18T03:16:36.236Z,98065.46
2023-04-18T03:19:07.346Z,98068.87
2023-04-18T03:21:38.287Z,98068.73
2023-04-18T03:24:11.587Z,98069.03
2023-04-18T03:26:43.419Z,98072.05
2023-04-18T03:29:14.497Z,98067.14
2023-04-18T03:31:46.191Z,98069.38
2023-04-18T03:34:17.478Z,98071.94
2023-04-18T03:36:48.650Z,98068.59
2023-04-18T03:39:19.782Z,98072.94
2023-04-18T03:41:52.238Z,98071.04
2023-04-18T03:44:23.384Z,98066.87
2023-04-18T03:46:56.180Z,98067.63
2023-04-18T03:49:27.370Z,98064.66
2023-04-18T03:51:58.562Z,98066.77
2023-04-18T03:54:29.807Z,98067.78
2023-04-18T03:57:01.164Z,98065.75
2023-04-18T03:59:32.361Z,98064.17
2023-04-18T04:02:03.298Z,98063.33
2023-04-18T04:04:34.737Z,98067.21
2023-04-18T04:07:06.268Z,98065.59
2023-04-18T04:09:37.501Z,98067.54
2023-04-18T04:12:09.351Z,98066.48
2023-04-18T04:14:40.892Z,98066.01
2023-04-18T04:17:12.259Z,98064.00
2023-04-18T04:19:43.156Z,98069.55
2023-04-18T04:22:12.812Z,98072.02
2023-04-18T04:24:43.904Z,98073.61
2023-04-18T04:27:15.082Z,98068.71
2023-04-18T04:29:46.101Z,98070.73
2023-04-18T04:32:17.384Z,98073.59
2023-04-18T04:34:49.505Z,98073.38
2023-04-18T04:37:21.551Z,98074.98
2023-04-18T04:39:52.823Z,98074.73
2023-04-18T04:42:25.714Z,98078.34
2023-04-18T04:44:57.266Z,98078.54
2023-04-18T04:47:28.596Z,98076.66
2023-04-18T04:49:59.703Z,98077.70
2023-04-18T04:52:32.439Z,98082.88
2023-04-18T04:55:03.522Z,98083.09
2023-04-18T04:57:34.630Z,98084.73
2023-04-18T05:00:06.131Z,98080.43
2023-04-18T05:02:37.476Z,98083.67
2023-04-18T05:05:09.917Z,98077.53
2023-04-18T05:07:41.400Z,98077.36
2023-04-18T05:10:13.516Z,98081.66
2023-04-18T05:12:44.509Z,98081.61
2023-04-18T05:15:17.664Z,98083.41
2023-04-18T05:17:48.648Z,98078.63
2023-04-18T05:20:18.166Z,98080.20
2023-04-18T05:22:49.258Z,98076.96
2023-04-18T05:25:21.241Z,98078.21
2023-04-18T05:27:53.199Z,98081.05
2023-04-18T05:30:24.691Z,98083.83
2023-04-18T05:32:55.868Z,98086.67
2023-04-18T05:35:27.104Z,98083.57
2023-04-18T05:37:56.467Z,98089.74
2023-04-18T05:40:28.438Z,98086.90
2023-04-18T05:42:59.655Z,98092.35
2023-04-18T05:45:30.589Z,98096.62
2023-04-18T05:48:01.699Z,98095.54
2023-04-18T05:50:34.221Z,98099.61
2023-04-18T05:53:03.667Z,98103.30
2023-04-18T05:55:35.280Z,98104.86
2023-04-18T05:58:06.659Z,98097.35
2023-04-18T06:00:37.900Z,98103.13
2023-04-18T06:03:10.816Z,98100.52
2023-04-18T06:05:42.639Z,98106.59
2023-04-18T06:08:13.875Z,98107.70
2023-04-18T06:10:45.110Z,98107.61
2023-04-18T06:13:16.365Z,98110.73
2023-04-18T06:15:47.347Z,98114.36
2023-04-18T06:18:18.605Z,98117.33
2023-04-18T06:20:47.989Z,98123.48
2023-04-18T06:23:19.000Z,98127.52
2023-04-18T06:25:50.134Z,98128.91
2023-04-18T06:28:19.586Z,98124.72
2023-04-18T06:30:50.700Z,98131.94
2023-04-18T06:33:21.800Z,98131.36
2023-04-18T06:35:52.932Z,98134.90
2023-04-18T06:38:22.276Z,98127.27
2023-04-18T06:40:53.490Z,98126.03
2023-04-18T06:43:24.667Z,98130.73
2023-04-18T06:45:56.738Z,98129.48
2023-04-18T06:48:27.971Z,98129.08
2023-04-18T06:50:58.980Z,98137.68
2023-04-18T06:53:28.525Z,98138.72
2023-04-18T06:55:59.871Z,98140.88
2023-04-18T06:58:31.186Z,98138.13
2023-04-18T07:01:00.601Z,98134.55
2023-04-18T07:03:34.078Z,98141.01
2023-04-18T07:06:06.036Z,98142.02
2023-04-18T07:08:37.125Z,98142.92
2023-04-18T07:11:08.319Z,98150.05
2023-04-18T07:13:39.381Z,98152.59
2023-04-18T07:16:12.202Z,98153.91
2023-04-18T07:18:43.191Z,98152.63
2023-04-18T07:21:14.519Z,98152.67
2023-04-18T07:23:45.756Z,98156.52
2023-04-18T07:26:16.878Z,98157.70
2023-04-18T07:28:48.068Z,98160.27
2023-04-18T07:31:19.609Z,98155.56
2023-04-18T07:33:51.328Z,98158.86
2023-04-18T07:36:22.684Z,98152.70
2023-04-18T07:38:53.887Z,98157.43
2023-04-18T07:41:24.994Z,98158.23
2023-04-18T07:43:56.409Z,98159.55
2023-04-18T07:46:27.869Z,98155.23
2023-04-18T07:48:59.094Z,98158.89
2023-04-18T07:51:31.938Z,98161.32
2023-04-18T07:54:03.670Z,98155.95
2023-04-18T07:56:34.988Z,98158.98
2023-04-18T07:59:07.224Z,98165.27
2023-04-18T08:01:38.390Z,98162.56
2023-04-18T08:04:10.240Z,98161.76
2023-04-18T08:06:41.448Z,98167.09
2023-04-18T08:09:12.624Z,98163.41
2023-04-18T08:11:45.181Z,98165.39
2023-04-18T08:14:16.520Z,98156.00
2023-04-18T08:16:47.734Z,98165.58
2023-04-18T08:19:18.674Z,98167.55
2023-04-18T08:21:51.577Z,98168.67
2023-04-18T08:24:22.542Z,98177.38
2023-04-18T08:26:53.815Z,98177.33
2023-04-18T08:29:24.626Z,98177.33
2023-04-18T08:31:56.113Z,98187.00
2023-04-18T08:34:28.963Z,98190.44
2023-04-18T08:37:00.276Z,98194.04
2023-04-18T08:39:31.902Z,98181.42
2023-04-18T08:42:03.397Z,98184.65
2023-04-18T08:44:35.104Z,98174.23
2023-04-18T08:47:08.993Z,98172.76
2023-04-18T08:49:40.118Z,98165.30
2023-04-18T08:52:12.530Z,98165.03
2023-04-18T08:54:47.011Z,98163.91
2023-04-18T08:57:23.770Z,98171.34
2023-04-18T08:59:56.876Z,98181.31
2023-04-18T09:02:42.941Z,98190.52
2023-04-18T09:05:17.616Z,98190.07
2023-04-18T09:07:50.582Z,98193.09
2023-04-18T09:10:32.711Z,98194.91
2023-04-18T09:13:04.833Z,98195.48
2023-04-18T09:15:35.926Z,98196.08
2023-04-18T09:18:12.179Z,98196.23
2023-04-18T09:20:44.746Z,98198.81
2023-04-18T09:23:23.454Z,98200.05
2023-04-18T09:25:54.684Z,98196.22
2023-04-18T09:28:29.180Z,98200.73
2023-04-18T09:31:09.217Z,98196.34
2023-04-18T09:33:43.168Z,98207.91
2023-04-18T09:36:22.956Z,98209.17
2023-04-18T09:38:56.605Z,98205.86
2023-04-18T09:41:30.580Z,98207.45
2023-04-18T09:44:14.944Z,98205.88
2023-04-18T09:46:47.597Z,98203.65
2023-04-18T09:49:18.958Z,98206.58
2023-04-18T09:51:54.682Z,98208.20
2023-04-18T09:54:26.770Z,98203.13
2023-04-18T09:56:58.914Z,98201.82
2023-04-18T09:59:43.069Z,98197.88
2023-04-18T10:02:22.198Z,98196.82
2023-04-18T10:04:55.606Z,98198.48
2023-04-18T10:07:28.366Z,98202.60
2023-04-18T10:09:59.476Z,98205.83
2023-04-18T10:12:31.382Z,98203.89
2023-04-18T10:15:03.214Z,98203.48
2023-04-18T10:17:56.246Z,98206.87
2023-04-18T10:20:35.121Z,98202.45
2023-04-18T10:23:38.623Z,98207.74
2023-04-18T10:26:11.738Z,98207.02
2023-04-18T10:28:56.936Z,98207.92
2023-04-18T10:31:39.743Z,98205.09
2023-04-18T10:34:17.601Z,98198.59
2023-04-18T10:37:07.970Z,98201.66
2023-04-18T10:39:56.978Z,98199.23
2023-04-18T10:42:58.301Z,98205.33
2023-04-18T10:45:36.574Z,98202.53
2023-04-18T10:48:25.449Z,98196.54
2023-04-18T10:51:15.747Z,98197.38
2023-04-18T10:53:53.180Z,98184.71
2023-04-18T10:56:26.302Z,98180.25
2023-04-18T10:59:01.847Z,98179.50
2023-04-18T11:01:36.395Z,98186.89
2023-04-18T11:04:14.523Z,98188.48
2023-04-18T11:06:53.254Z,98196.06
2023-04-18T11:09:24.570Z,98188.36
2023-04-18T11:12:08.448Z,98180.36
2023-04-18T11:14:46.309Z,98184.27
2023-04-18T11:17:23.615Z,98180.65
2023-04-18T11:20:05.988Z,98183.33
2023-04-18T11:22:46.931Z,98181.52
2023-04-18T11:25:18.956Z,98174.46
2023-04-18T11:27:51.931Z,98179.77
2023-04-18T11:30:22.870Z,98183.50
2023-04-18T11:32:54.385Z,98182.77
2023-04-18T11:35:25.931Z,98180.29
2023-04-18T11:37:57.375Z,98175.66
2023-04-18T11:40:28.540Z,98177.45
2023-04-18T11:43:01.857Z,98170.01
2023-04-18T11:45:33.294Z,98175.63
2023-04-18T11:48:04.681Z,98176.13
2023-04-18T11:50:38.623Z,98162.73
2023-04-18T11:53:09.950Z,98159.19
2023-04-18T11:55:40.986Z,98159.39
2023-04-18T11:58:12.122Z,98155.09
2023-04-18T12:00:43.329Z,98149.27
2023-04-18T12:03:19.452Z,98153.08
2023-04-18T12:05:59.648Z,98149.30
2023-04-18T12:08:32.403Z,98156.50
2023-04-18T12:11:03.555Z,98158.09
2023-04-18T12:13:36.004Z,98158.81
2023-04-18T12:16:08.193Z,98147.65
2023-04-18T12:18:41.978Z,98162.89
2023-04-18T12:21:14.072Z,98149.64
2023-04-18T12:23:46.154Z,98148.31
2023-04-18T12:26:18.772Z,98147.55
2023-04-18T12:28:53.945Z,98151.36
2023-04-18T12:31:25.159Z,98154.23
2023-04-18T12:33:56.277Z,98154.71
2023-04-18T12:36:28.539Z,98156.83
2023-04-18T12:38:59.742Z,98157.25
2023-04-18T12:41:31.209Z,98160.61
2023-04-18T12:44:02.661Z,98160.36
2023-04-18T12:46:34.030Z,98154.13
2023-04-18T12:49:05.324Z,98160.02
2023-04-18T12:51:36.392Z,98155.81
2023-04-18T12:54:07.790Z,98155.73
2023-04-18T12:56:38.787Z,98167.92
2023-04-18T12:59:09.619Z,98169.12
2023-04-18T13:01:38.921Z,98161.89
2023-04-18T13:04:12.819Z,98167.65
2023-04-18T13:06:44.478Z,98171.86
2023-04-18T13:09:16.772Z,98176.42
2023-04-18T13:11:49.552Z,98175.92
2023-04-18T13:14:21.414Z,98172.71
2023-04-18T13:16:52.445Z,98176.21
2023-04-18T13:19:23.704Z,98174.39
2023-04-18T13:21:55.882Z,98172.33
2023-04-18T13:24:27.094Z,98168.26
2023-04-18T13:26:58.341Z,98168.17
2023-04-18T13:29:29.661Z,98163.88
2023-04-18T13:32:00.566Z,98161.30
2023-04-18T13:34:32.264Z,98155.89
2023-04-18T13:37:03.752Z,98153.89
2023-04-18T13:39:35.602Z,98151.95
2023-04-18T13:42:07.831Z,98152.44
2023-04-18T13:44:39.690Z,98151.52
2023-04-18T13:47:11.016Z,98144.04
2023-04-18T13:49:42.239Z,98156.93
2023-04-18T13:52:13.587Z,98147.29
2023-04-18T13:54:44.552Z,98153.40
2023-04-18T13:57:15.878Z,98159.06
2023-04-18T13:59:47.196Z,98154.64
2023-04-18T14:02:18.389Z,98161.30
2023-04-18T14:04:49.630Z,98154.40
2023-04-18T14:07:20.717Z,98158.69
2023-04-18T14:09:53.741Z,98157.80
2023-04-18T14:12:25.180Z,98159.67
2023-04-18T14:14:56.378Z,98160.18
2023-04-18T14:17:28.120Z,98164.60
2023-04-18T14:19:59.213Z,98170.05
2023-04-18T14:22:30.308Z,98168.64
2023-04-18T14:25:01.783Z,98172.96
2023-04-18T14:27:33.103Z,98173.20
2023-04-18T14:30:06.692Z,98176.48
2023-04-18T14:32:37.875Z,98175.73
2023-04-18T14:35:11.186Z,98172.52
2023-04-18T14:37:42.271Z,98171.77
2023-04-18T14:40:14.803Z,98170.45
2023-04-18T14:42:47.167Z,98175.10
2023-04-18T14:45:18.677Z,98175.91
2023-04-18T14:47:49.977Z,98180.32
2023-04-18T14:50:24.222Z,98181.95
2023-04-18T14:52:55.689Z,98193.11
2023-04-18T14:55:27.036Z,98190.27
2023-04-18T14:57:58.099Z,98189.39
2023-04-18T15:00:29.682Z,98190.81
2023-04-18T15:03:01.231Z,98190.16
2023-04-18T15:05:32.853Z,98186.10
2023-04-18T15:08:04.601Z,98189.03
2023-04-18T15:10:36.057Z,98195.46
2023-04-18T15:13:07.063Z,98189.62
2023-04-18T15:15:39.680Z,98190.13
2023-04-18T15:18:11.322Z,98191.27
2023-04-18T15:20:42.371Z,98189.49
2023-04-18T15:23:14.303Z,98182.55
2023-04-18T15:25:46.932Z,98188.21
2023-04-18T15:28:18.919Z,98179.02
2023-04-18T15:30:49.805Z,98180.68
2023-04-18T15:33:21.141Z,98179.90
2023-04-18T15:35:52.415Z,98180.85
2023-04-18T15:38:23.386Z,98182.81
2023-04-18T15:40:54.365Z,98190.94
2023-04-18T15:43:25.559Z,98193.46
2023-04-18T15:45:56.723Z,98184.02
2023-04-18T15:48:28.677Z,98194.92
2023-04-18T15:51:00.000Z,98193.54
2023-04-18T15:53:31.308Z,98195.45
2023-04-18T15:56:02.375Z,98197.75
2023-04-18T15:58:33.308Z,98199.10
2023-04-18T16:01:04.857Z,98194.20
2023-04-18T16:03:36.309Z,98205.10
2023-04-18T16:06:08.020Z,98212.93
2023-04-18T16:08:39.747Z,98211.15
2023-04-18T16:11:11.289Z,98210.58
2023-04-18T16:13:42.279Z,98212.61
2023-04-18T16:16:13.439Z,98210.02
2023-04-18T16:18:45.017Z,98213.85
2023-04-18T16:21:17.509Z,98210.00
2023-04-18T16:23:49.343Z,98210.84
2023-04-18T16:26:20.318Z,98208.67
2023-04-18T16:28:51.572Z,98208.09
2023-04-18T16:31:22.592Z,98209.63
2023-04-18T16:33:53.752Z,98211.27
2023-04-18T16:36:26.070Z,98210.95
2023-04-18T16:38:57.573Z,98211.91
2023-04-18T16:41:28.558Z,98213.42
2023-04-18T16:43:59.570Z,98209.63
2023-04-18T16:46:32.438Z,98210.87
2023-04-18T16:49:03.596Z,98209.23
2023-04-18T16:51:36.295Z,98210.26
2023-04-18T16:54:08.662Z,98210.27
2023-04-18T16:56:39.675Z,98209.98
2023-04-18T16:59:10.828Z,98213.39
2023-04-18T17:01:41.933Z,98209.85
2023-04-18T17:04:13.260Z,98210.22
2023-04-18T17:06:44.775Z,98213.27
2023-04-18T17:09:16.349Z,98212.42
2023-04-18T17:11:50.664Z,98214.23
2023-04-18T17:14:21.908Z,98217.30
2023-04-18T17:16:53.737Z,98218.24
2023-04-18T17:19:26.308Z,98217.86
2023-04-18T17:21:57.318Z,98221.77
2023-04-18T17:24:28.514Z,98221.30
2023-04-18T17:27:01.343Z,98226.52
2023-04-18T17:29:32.764Z,98229.36
2023-04-18T17:32:04.199Z,98231.23
2023-04-18T17:34:35.358Z,98231.52
2023-04-18T17:37:06.510Z,98232.39
2023-04-18T17:39:37.778Z,98223.56
2023-04-18T17:42:08.965Z,98226.48
2023-04-18T17:44:40.078Z,98228.56
2023-04-18T17:47:11.237Z,98227.39
2023-04-18T17:49:42.269Z,98232.38
2023-04-18T17:52:13.649Z,98232.80
2023-04-18T17:54:44.883Z,98236.79
2023-04-18T17:57:16.729Z,98234.14
2023-04-18T17:59:47.812Z,98243.70
2023-04-18T18:02:19.031Z,98244.95
2023-04-18T18:04:51.466Z,98242.86
2023-04-18T18:07:22.981Z,98245.41
2023-04-18T18:09:54.341Z,98249.98
2023-04-18T18:12:26.368Z,98249.96
2023-04-18T18:14:58.394Z,98249.16
2023-04-18T18:17:30.359Z,98250.33
2023-04-18T18:20:01.401Z,98249.20
2023-04-18T18:22:33.534Z,98248.61
2023-04-18T18:25:05.206Z,98240.46
2023-04-18T18:27:36.677Z,98248.18
2023-04-18T18:30:10.116Z,98247.48
2023-04-18T18:32:41.340Z,98248.58
2023-04-18T18:35:13.422Z,98251.91
2023-04-18T18:37:44.811Z,98254.99
2023-04-18T18:40:16.569Z,98254.27
2023-04-18T18:42:49.439Z,98257.25
2023-04-18T18:45:21.255Z,98255.82
2023-04-18T18:47:52.464Z,98257.16
2023-04-18T18:50:23.752Z,98258.70
2023-04-18T18:52:54.878Z,98258.50
2023-04-18T18:55:26.475Z,98255.50
2023-04-18T18:57:57.922Z,98255.84
2023-04-18T19:00:30.256Z,98260.02
2023-04-18T19:03:02.034Z,98252.50
2023-04-18T19:05:33.774Z,98261.06
2023-04-18T19:08:06.617Z,98255.60
2023-04-18T19:10:38.019Z,98256.16
2023-04-18T19:13:09.275Z,98259.88
2023-04-18T19:15:40.666Z,98259.94
2023-04-18T19:18:12.497Z,98260.62
2023-04-18T19:20:43.568Z,98258.92
2023-04-18T19:23:14.822Z,98260.63
2023-04-18T19:25:46.345Z,98261.05
2023-04-18T19:28:18.466Z,98261.85
2023-04-18T19:30:49.522Z,98264.02
2023-04-18T19:33:21.299Z,98263.19
2023-04-18T19:35:52.418Z,98267.98
2023-04-18T19:38:23.891Z,98266.08
2023-04-18T19:40:55.241Z,98265.88
2023-04-18T19:43:26.633Z,98268.97
2023-04-18T19:45:57.718Z,98266.52
2023-04-18T19:48:29.947Z,98262.02
2023-04-18T19:51:01.604Z,98263.70
2023-04-18T19:53:33.666Z,98257.83
2023-04-18T19:56:05.096Z,98254.70
2023-04-18T19:58:44.966Z,98257.05
2023-04-18T20:01:17.183Z,98258.51
2023-04-18T20:03:48.929Z,98253.40
2023-04-18T20:06:20.465Z,98249.66
2023-04-18T20:08:51.596Z,98249.98
2023-04-18T20:11:25.948Z,98247.46
2023-04-18T20:13:59.369Z,98247.16
2023-04-18T20:16:30.658Z,98247.75
2023-04-18T20:19:01.821Z,98250.15
2023-04-18T20:21:32.880Z,98252.15
2023-04-18T20:24:02.168Z,98253.27
2023-04-18T20:26:33.245Z,98250.73
2023-04-18T20:29:05.007Z,98250.93
2023-04-18T20:31:37.817Z,98250.22
2023-04-18T20:34:09.893Z,98246.95
2023-04-18T20:36:42.457Z,98253.68
2023-04-18T20:39:14.020Z,98250.94
2023-04-18T20:41:48.541Z,98249.71
2023-04-18T20:44:21.047Z,98250.86
2023-04-18T20:46:53.372Z,98249.73
2023-04-18T20:49:24.330Z,98248.77
2023-04-18T20:51:55.615Z,98246.99
2023-04-18T20:54:26.946Z,98244.52
2023-04-18T20:56:58.407Z,98251.81
2023-04-18T20:59:31.482Z,98249.63
2023-04-18T21:02:02.673Z,98250.60
2023-04-18T21:04:33.964Z,98244.02
2023-04-18T21:07:05.092Z,98246.28
2023-04-18T21:09:37.455Z,98248.69
2023-04-18T21:12:09.146Z,98248.58
2023-04-18T21:14:40.494Z,98247.41
2023-04-18T21:17:17.146Z,98240.80
2023-04-18T21:19:49.596Z,98240.18
2023-04-18T21:22:21.086Z,98240.26
2023-04-18T21:24:52.298Z,98235.71
2023-04-18T21:27:23.638Z,98231.42
2023-04-18T21:29:54.976Z,98236.27
2023-04-18T21:32:26.606Z,98232.80
2023-04-18T21:34:58.030Z,98232.51
2023-04-18T21:37:29.091Z,98234.77
2023-04-18T21:40:00.563Z,98232.33
2023-04-18T21:42:31.798Z,98234.06
2023-04-18T21:45:02.890Z,98241.16
2023-04-18T21:47:36.095Z,98235.00
2023-04-18T21:50:09.104Z,98235.39
2023-04-18T21:52:40.240Z,98234.27
2023-04-18T21:55:12.224Z,98232.32
2023-04-18T21:57:43.322Z,98233.70
2023-04-18T22:00:16.610Z,98232.55
2023-04-18T22:02:47.940Z,98231.85
2023-04-18T22:05:20.193Z,98229.38
2023-04-18T22:07:58.010Z,98230.59
2023-04-18T22:10:30.049Z,98223.35
2023-04-18T22:13:01.341Z,98219.66
2023-04-18T22:15:33.038Z,98216.83
2023-04-18T22:18:05.423Z,98210.77
2023-04-18T22:20:37.459Z,98212.09
2023-04-18T22:23:08.551Z,98210.95
2023-04-18T22:25:39.869Z,98209.86
2023-04-18T22:28:11.014Z,98204.64
2023-04-18T22:30:42.384Z,98204.13
2023-04-18T22:33:13.721Z,98204.58
2023-04-18T22:35:45.306Z,98203.07
2023-04-18T22:38:16.366Z,98199.75
2023-04-18T22:40:47.488Z,98199.16
2023-04-18T22:43:22.848Z,98194.27
2023-04-18T22:45:54.298Z,98189.49
2023-04-18T22:48:25.514Z,98188.95
2023-04-18T22:50:56.738Z,98186.86
2023-04-18T22:53:28.084Z,98184.27
2023-04-18T22:55:59.974Z,98178.55
2023-04-18T22:58:31.634Z,98179.94
2023-04-18T23:01:03.158Z,98178.05
2023-04-18T23:03:35.791Z,98176.77
2023-04-18T23:06:09.277Z,98173.04
2023-04-18T23:08:40.427Z,98173.61
2023-04-18T23:11:11.641Z,98176.26
2023-04-18T23:13:42.547Z,98171.73
2023-04-18T23:16:13.717Z,98162.97
2023-04-18T23:18:44.927Z,98159.67
2023-04-18T23:21:17.618Z,98163.58
2023-04-18T23:23:48.645Z,98164.69
2023-04-18T23:26:19.780Z,98159.83
2023-04-18T23:28:50.977Z,98158.43
2023-04-18T23:31:22.277Z,98157.39
2023-04-18T23:33:53.359Z,98149.45
2023-04-18T23:36:24.442Z,98153.51
2023-04-18T23:38:55.759Z,98147.84
2023-04-18T23:41:26.753Z,98151.01
2023-04-18T23:43:57.927Z,98143.18
2023-04-18T23:46:29.195Z,98140.67
2023-04-18T23:49:00.280Z,98139.36
2023-04-18T23:51:29.509Z,98138.83
2023-04-18T23:54:03.257Z,98131.95
2023-04-18T23:56:35.203Z,98127.30
2023-04-18T23:59:06.337Z,98127.36
